Time;durP1;ratioP1;P1;durP2;ratioP2;P2;SDS_P1;SDS_P2;PMS_P1;PMS_P2;Temp;Humidity;BMP_temperature;BMP_pressure;BME280_temperature;BME280_humidity;BME280_pressure;Samples;Min_cycle;Max_cycle;Signal;HPM_P1;HPM_P2
2021/10/08 00:14:40;;;;;;;7.30;4.63;;;22.30;55.20;;;;;;31752569;28;20047;-47
2021/10/08 00:29:42;;;;;;;3.38;2.58;;;22.30;54.20;;;;;;31750634;28;20048;-44
2021/10/08 00:44:44;;;;;;;3.47;2.53;;;22.30;55.60;;;;;;31749775;28;20052;-47
2021/10/08 00:59:47;;;;;;;2.08;1.88;;;22.50;56.10;;;;;;31747587;28;20170;-46
2021/10/08 01:14:49;;;;;;;2.17;1.95;;;23.00;55.90;;;;;;31749750;28;20092;-46
2021/10/08 01:29:56;;;;;;;2.17;1.83;;;23.00;56.50;;;;;;31752894;28;20071;-43
2021/10/08 01:45:01;;;;;;;3.92;1.90;;;22.90;56.20;;;;;;31757619;28;20078;-43
2021/10/08 02:00:05;;;;;;;2.30;1.67;;;22.90;56.30;;;;;;31773734;28;20051;-46
2021/10/08 02:15:08;;;;;;;1.60;1.50;;;22.80;56.30;;;;;;31772473;28;20047;-51
2021/10/08 02:30:11;;;;;;;2.25;1.58;;;22.70;56.40;;;;;;31770271;28;20051;-49
2021/10/08 02:45:15;;;;;;;1.30;1.20;;;22.60;56.60;;;;;;31761367;28;20056;-48
2021/10/08 03:00:17;;;;;;;1.58;1.38;;;22.50;56.60;;;;;;31760393;28;20170;-46
2021/10/08 03:15:19;;;;;;;1.10;0.95;;;22.50;56.70;;;;;;31762267;28;20066;-49
2021/10/08 03:30:21;;;;;;;1.30;1.17;;;22.40;56.70;;;;;;31760159;28;20063;-45
2021/10/08 03:45:30;;;;;;;1.70;1.55;;;22.40;56.70;;;;;;31758514;28;20075;-48
2021/10/08 04:00:32;;;;;;;3.43;1.20;;;22.40;56.90;;;;;;31752274;28;20095;-52
2021/10/08 04:15:34;;;;;;;1.95;1.30;;;22.40;56.90;;;;;;31753778;28;20044;-47
2021/10/08 04:30:36;;;;;;;0.80;0.80;;;22.40;56.90;;;;;;31747186;28;20119;-47
2021/10/08 04:45:38;;;;;;;1.35;1.05;;;22.40;56.50;;;;;;31624223;28;20059;-48
2021/10/08 05:00:41;;;;;;;1.48;1.30;;;22.30;56.80;;;;;;31620116;28;20092;-48
2021/10/08 05:15:44;;;;;;;1.42;1.30;;;22.30;56.60;;;;;;31619882;28;20071;-48
2021/10/08 05:30:46;;;;;;;12.82;4.03;;;22.20;57.20;;;;;;31638761;28;20073;-47
2021/10/08 05:45:49;;;;;;;97.63;63.97;;;22.20;54.70;;;;;;31630908;28;20056;-47
2021/10/08 06:00:51;;;;;;;128.68;83.65;;;22.40;52.70;;;;;;31640007;28;20071;-49
2021/10/08 06:15:53;;;;;;;61.80;31.23;;;22.40;43.90;;;;;;31638410;28;20074;-49
2021/10/08 06:30:55;;;;;;;40.60;19.02;;;22.40;42.30;;;;;;31635160;28;20068;-48
2021/10/08 06:45:57;;;;;;;35.92;15.75;;;22.20;40.30;;;;;;31634626;28;20059;-49
2021/10/08 07:01:01;;;;;;;28.55;12.95;;;22.00;39.30;;;;;;31633434;28;20044;-42
2021/10/08 07:16:04;;;;;;;52.58;21.42;;;21.90;39.30;;;;;;31639421;28;20047;-41
2021/10/08 07:31:16;;;;;;;37.00;18.88;;;22.00;36.90;;;;;;31630849;28;20056;-47
2021/10/08 07:46:18;;;;;;;29.45;15.35;;;22.30;40.30;;;;;;31627009;28;20056;-48
2021/10/08 08:01:20;;;;;;;24.95;14.88;;;22.40;42.30;;;;;;31609490;28;20041;-39
2021/10/08 08:16:22;;;;;;;44.97;14.52;;;22.40;43.60;;;;;;31625603;28;20040;-38
2021/10/08 08:31:24;;;;;;;30.35;12.98;;;22.40;44.40;;;;;;31623389;28;20614;-38
2021/10/08 08:46:27;;;;;;;24.05;12.20;;;22.20;45.50;;;;;;31621823;28;20064;-39
2021/10/08 09:01:29;;;;;;;21.98;10.90;;;22.20;45.40;;;;;;31622425;28;20044;-40
2021/10/08 09:16:32;;;;;;;21.42;10.00;;;22.00;46.00;;;;;;31622836;28;20047;-40
2021/10/08 09:31:36;;;;;;;21.15;9.57;;;22.30;45.80;;;;;;31621715;28;20052;-40
2021/10/08 09:46:39;;;;;;;19.65;9.02;;;22.70;45.50;;;;;;31620551;28;20060;-40
2021/10/08 10:01:43;;;;;;;19.38;8.30;;;22.70;45.60;;;;;;31619849;28;20091;-40
2021/10/08 10:16:45;;;;;;;16.92;8.32;;;22.50;46.10;;;;;;31640401;28;20122;-47
2021/10/08 10:31:48;;;;;;;17.25;8.35;;;22.50;46.30;;;;;;31637582;28;20052;-43
2021/10/08 10:46:54;;;;;;;16.15;8.18;;;22.40;47.00;;;;;;31624902;28;20080;-43
2021/10/08 11:02:07;;;;;;;24.27;8.25;;;22.40;46.80;;;;;;31622949;28;20064;-43
2021/10/08 11:17:44;;;;;;;14.48;7.30;;;22.30;48.10;;;;;;31633134;28;20539;-48
2021/10/08 11:32:49;;;;;;;14.57;6.78;;;22.30;48.20;;;;;;31633788;28;20068;-47
2021/10/08 11:47:57;;;;;;;14.70;5.75;;;22.40;48.40;;;;;;31634178;28;20068;-41
2021/10/08 12:03:09;;;;;;;9.07;5.32;;;22.40;48.70;;;;;;31616375;28;20040;-44
2021/10/08 12:18:16;;;;;;;13.30;5.97;;;22.40;48.90;;;;;;31611970;28;20052;-48
2021/10/08 12:33:36;;;;;;;17.15;6.13;;;22.20;49.70;;;;;;31622655;28;20048;-45
2021/10/08 12:48:38;;;;;;;12.40;5.22;;;22.10;49.80;;;;;;31621165;28;20060;-49
2021/10/08 13:03:42;;;;;;;11.82;5.15;;;22.20;49.60;;;;;;31623690;28;20045;-47
2021/10/08 13:18:45;;;;;;;9.52;4.85;;;22.30;49.50;;;;;;31626579;28;20044;-40
2021/10/08 13:33:47;;;;;;;10.27;5.00;;;22.20;49.60;;;;;;31626827;28;20044;-41
2021/10/08 13:48:49;;;;;;;9.55;4.22;;;22.20;49.60;;;;;;31644281;28;20508;-41
2021/10/08 14:04:05;;;;;;;40.83;15.32;;;22.20;49.60;;;;;;31647018;28;20045;-42
2021/10/08 14:19:07;;;;;;;26.17;5.57;;;21.70;48.80;;;;;;31645050;28;20037;-43
2021/10/08 14:34:10;;;;;;;19.88;5.82;;;22.20;47.50;;;;;;31624700;28;20045;-43
2021/10/08 14:49:12;;;;;;;21.75;6.80;;;22.70;47.30;;;;;;31639200;28;20056;-41
2021/10/08 15:04:15;;;;;;;23.40;6.72;;;23.00;48.00;;;;;;31285783;28;10000159;-41
2021/10/08 15:19:17;;;;;;;19.95;7.25;;;23.00;48.90;;;;;;31632720;28;20061;-40
2021/10/08 15:34:19;;;;;;;23.42;6.82;;;22.90;49.50;;;;;;31630438;28;20047;-42
2021/10/08 15:49:21;;;;;;;19.42;5.90;;;22.70;50.10;;;;;;31613198;28;20056;-42
2021/10/08 16:04:24;;;;;;;12.52;6.15;;;22.70;50.20;;;;;;31586622;28;20063;-41
2021/10/08 16:19:29;;;;;;;14.52;6.15;;;22.60;50.60;;;;;;31617274;28;20045;-40
2021/10/08 16:34:32;;;;;;;11.77;5.15;;;22.60;51.00;;;;;;31596443;28;20052;-50
2021/10/08 16:49:34;;;;;;;16.13;5.75;;;22.60;51.10;;;;;;31611991;28;20060;-47
2021/10/08 17:04:36;;;;;;;99.97;71.20;;;22.50;51.20;;;;;;31610183;28;20067;-48
2021/10/08 17:19:38;;;;;;;205.70;144.30;;;22.40;50.90;;;;;;31622742;28;20075;-45
2021/10/08 17:34:40;;;;;;;203.63;144.43;;;22.40;51.80;;;;;;31637426;28;20086;-44
2021/10/08 17:49:42;;;;;;;183.52;124.22;;;22.40;51.90;;;;;;31647183;28;20094;-45
2021/10/08 18:04:44;;;;;;;158.52;107.72;;;22.30;52.20;;;;;;31643389;28;20051;-44
2021/10/08 18:19:46;;;;;;;137.48;94.97;;;22.30;52.40;;;;;;31639394;28;20094;-46
2021/10/08 18:34:49;;;;;;;123.30;82.10;;;22.30;52.10;;;;;;31632218;28;20040;-45
2021/10/08 18:49:51;;;;;;;111.05;75.90;;;22.30;52.20;;;;;;31628490;28;20121;-43
2021/10/08 19:04:53;;;;;;;89.85;64.05;;;22.40;52.10;;;;;;31277538;28;10000293;-45
2021/10/08 19:34:58;;;;;;;66.22;44.38;;;22.40;51.40;;;;;;31636787;28;20044;-45
2021/10/08 19:49:59;;;;;;;52.85;34.85;;;22.40;51.20;;;;;;31635412;28;20076;-44
2021/10/08 20:05:47;;;;;;;46.20;30.73;;;22.50;51.10;;;;;;31632182;28;20048;-43
2021/10/08 20:20:27;;;;;;;43.22;25.73;;;22.50;51.00;;;;;;31616571;28;20055;-43
2021/10/08 20:35:29;;;;;;;11.48;6.85;;;22.40;51.40;;;;;;31626103;28;20064;-42
2021/10/08 20:50:31;;;;;;;4.30;1.77;;;22.40;51.60;;;;;;31627340;28;20064;-44
2021/10/08 21:05:34;;;;;;;0.88;0.60;;;22.40;51.60;;;;;;31607894;28;20056;-43
2021/10/08 21:20:37;;;;;;;1.50;0.68;;;22.40;51.40;;;;;;31627885;28;20177;-45
2021/10/08 21:35:43;;;;;;;32.83;24.58;;;22.40;51.40;;;;;;31623485;28;20048;-46
2021/10/08 21:50:46;;;;;;;26.58;17.73;;;22.40;51.10;;;;;;31620938;28;20128;-46
2021/10/08 22:05:49;;;;;;;13.82;8.20;;;22.30;51.30;;;;;;31636248;28;20044;-41
2021/10/08 22:20:51;;;;;;;8.85;5.38;;;22.40;50.90;;;;;;31646623;28;20040;-41
2021/10/08 22:35:53;;;;;;;14.88;4.28;;;22.40;51.10;;;;;;31640746;28;20068;-45
2021/10/08 22:50:55;;;;;;;4.10;2.70;;;22.40;50.90;;;;;;31641573;28;20055;-47
2021/10/08 23:06:12;;;;;;;2.88;1.80;;;22.40;50.90;;;;;;31633460;28;20100;-48
2021/10/08 23:21:14;;;;;;;2.88;1.63;;;22.40;50.80;;;;;;31635042;28;20037;-43
2021/10/08 23:36:16;;;;;;;1.70;0.63;;;22.30;50.80;;;;;;31631451;28;20068;-44
2021/10/08 23:51:18;;;;;;;1.77;0.50;;;22.30;50.80;;;;;;31633601;28;20044;-43
